Time;durP1;ratioP1;P1;durP2;ratioP2;P2;SDS_P1;SDS_P2;PMS_P1;PMS_P2;Temp;Humidity;BMP_temperature;BMP_pressure;BME280_temperature;BME280_humidity;BME280_pressure;Samples;Min_cycle;Max_cycle;Signal;HPM_P1;HPM_P2
2022/11/05 02:10:54;;;;;;;22.10;13.72;;;;;;;8.61;95.02;99336.32;2023108;86;21079;-76
2022/11/05 02:13:55;;;;;;;16.55;12.80;;;;;;;8.61;95.35;99352.19;2018318;86;21519;-76
2022/11/05 02:17:14;;;;;;;15.23;12.20;;;;;;;8.61;95.11;99345.58;2019574;86;21124;-76
2022/11/05 02:20:48;;;;;;;14.30;9.73;;;;;;;8.62;95.07;99346.42;2011881;87;21053;-76
2022/11/05 02:24:27;;;;;;;7.03;5.65;;;;;;;8.61;95.17;99333.67;1994520;86;21172;-78
2022/11/05 02:27:57;;;;;;;4.55;3.30;;;;;;;8.59;95.14;99354.20;2004522;87;21094;-78
2022/11/05 02:31:30;;;;;;;3.33;2.20;;;;;;;8.55;95.14;99366.10;2020217;86;21706;-75
2022/11/05 02:35:00;;;;;;;2.05;1.95;;;;;;;8.47;94.79;99378.84;2021829;87;21059;-76
2022/11/05 02:38:25;;;;;;;1.85;1.75;;;;;;;8.40;94.69;99388.98;2019227;87;21048;-76
2022/11/05 02:42:07;;;;;;;2.00;1.75;;;;;;;8.35;94.61;99388.63;2017730;86;21079;-76
2022/11/05 02:45:34;;;;;;;2.30;2.20;;;;;;;8.29;94.72;99402.84;2022047;86;21070;-76
2022/11/05 02:48:46;;;;;;;2.50;2.22;;;;;;;8.23;94.85;99410.63;2020153;86;21033;-77
2022/11/05 02:51:58;;;;;;;2.70;2.50;;;;;;;8.21;94.79;99424.50;2018300;86;21520;-76
2022/11/05 02:55:19;;;;;;;3.10;2.80;;;;;;;8.20;94.88;99435.58;2018110;86;21078;-77
2022/11/05 02:58:21;;;;;;;3.17;2.98;;;;;;;8.18;94.86;99442.84;2016066;86;21049;-77
2022/11/05 03:01:22;;;;;;;3.35;3.12;;;;;;;8.15;95.00;99442.36;2005102;86;21085;-77
2022/11/05 03:04:24;;;;;;;3.92;3.33;;;;;;;8.12;94.99;99446.16;2021143;86;21062;-77
2022/11/05 03:07:36;;;;;;;3.55;3.25;;;;;;;8.10;95.00;99448.13;2021983;86;22008;-77
2022/11/05 03:10:46;;;;;;;4.05;3.65;;;;;;;8.09;95.13;99451.78;2020070;87;21090;-80
2022/11/05 03:14:04;;;;;;;4.12;3.75;;;;;;;8.08;95.07;99447.00;2030073;86;21118;-79
2022/11/05 03:17:22;;;;;;;3.67;3.37;;;;;;;8.05;95.06;99452.62;2014788;86;21049;-78
2022/11/05 03:20:41;;;;;;;4.20;3.45;;;;;;;8.03;95.15;99459.87;2037635;86;21066;-77
2022/11/05 03:23:48;;;;;;;3.77;3.08;;;;;;;8.04;95.16;99468.13;2036306;86;21076;-76
2022/11/05 03:26:56;;;;;;;3.37;3.02;;;;;;;8.04;95.14;99475.23;2036490;86;21031;-77
2022/11/05 03:30:04;;;;;;;3.08;2.77;;;;;;;8.04;95.22;99481.83;2038521;86;21070;-82
2022/11/05 03:33:14;;;;;;;4.37;2.72;;;;;;;8.03;95.15;99484.16;2035813;86;22196;-76
2022/11/05 03:36:26;;;;;;;3.87;3.02;;;;;;;8.02;95.14;99499.16;2033997;86;21045;-80
2022/11/05 03:39:35;;;;;;;3.27;3.00;;;;;;;8.03;95.23;99502.65;2034698;86;21109;-77
2022/11/05 03:42:41;;;;;;;2.58;2.37;;;;;;;8.02;95.19;99508.91;2034200;86;21602;-79
2022/11/05 03:45:46;;;;;;;2.85;2.65;;;;;;;8.02;95.32;99511.05;2035373;86;21548;-78
2022/11/05 03:48:52;;;;;;;3.22;2.90;;;;;;;8.00;95.44;99521.48;2033547;86;21021;-77
2022/11/05 03:52:12;;;;;;;2.60;2.37;;;;;;;7.99;95.37;99519.30;2036143;86;21450;-78
2022/11/05 03:55:14;;;;;;;4.17;2.80;;;;;;;7.99;95.42;99511.38;2036667;86;21080;-78
2022/11/05 03:58:18;;;;;;;5.62;2.60;;;;;;;7.99;95.46;99514.52;2036975;86;21037;-76
2022/11/05 04:01:19;;;;;;;2.67;2.22;;;;;;;7.98;95.45;99515.02;2035927;86;21548;-81
2022/11/05 04:04:20;;;;;;;2.60;2.40;;;;;;;7.97;95.70;99529.23;2036310;86;21562;-78
2022/11/05 04:14:02;;;;;;;3.00;2.22;;;;;;;7.95;95.55;99564.73;2033605;86;21574;-78
2022/11/05 04:17:07;;;;;;;2.60;2.40;;;;;;;7.96;95.51;99572.97;2034559;86;21078;-76
2022/11/05 04:26:48;;;;;;;4.58;2.52;;;;;;;7.92;95.84;99576.45;2034899;86;21075;-76
2022/11/05 04:30:31;;;;;;;2.45;2.12;;;;;;;7.91;95.94;99580.05;2035513;86;21021;-79
2022/11/05 04:33:02;;;;;;;2.72;2.10;;;;;;;7.89;96.01;99578.09;2025152;86;21044;-79
2022/11/05 04:36:04;;;;;;;3.20;2.22;;;;;;;7.88;95.96;99575.60;2035131;86;21112;-77
2022/11/05 04:39:05;;;;;;;2.30;2.10;;;;;;;7.86;95.94;99575.28;2036150;86;21042;-77
2022/11/05 04:42:06;;;;;;;2.72;2.05;;;;;;;7.86;96.01;99585.02;2037219;86;21469;-79
2022/11/05 04:45:07;;;;;;;2.15;1.95;;;;;;;7.87;95.94;99591.95;2035613;86;21013;-76
2022/11/05 04:48:08;;;;;;;2.15;1.95;;;;;;;7.87;95.97;99605.16;2037732;86;21036;-77
2022/11/05 04:51:10;;;;;;;5.87;2.10;;;;;;;7.86;96.05;99604.33;2038031;86;21094;-76
2022/11/05 04:54:11;;;;;;;2.22;2.02;;;;;;;7.86;96.03;99610.94;2035910;86;21036;-76
2022/11/05 04:57:14;;;;;;;3.02;1.77;;;;;;;7.86;96.04;99612.27;2035233;86;21132;-77
2022/11/05 05:00:17;;;;;;;3.27;1.90;;;;;;;7.86;96.19;99603.52;2036462;86;21001;-77
2022/11/05 05:03:18;;;;;;;2.00;1.80;;;;;;;7.84;96.17;99604.16;2037278;86;21052;-76
2022/11/05 05:06:20;;;;;;;2.20;2.10;;;;;;;7.82;96.22;99606.13;2036013;86;21071;-78
2022/11/05 05:09:21;;;;;;;4.08;2.02;;;;;;;7.82;96.31;99616.70;2035547;86;21031;-76
2022/11/05 05:12:22;;;;;;;2.40;2.20;;;;;;;7.81;96.29;99619.84;2036247;86;21046;-76
2022/11/05 05:15:23;;;;;;;3.05;2.60;;;;;;;7.81;96.35;99618.52;2036320;86;21063;-78
2022/11/05 05:18:25;;;;;;;3.77;2.22;;;;;;;7.83;96.36;99621.01;2036234;86;21233;-77
2022/11/05 05:21:39;;;;;;;2.25;2.05;;;;;;;7.81;96.37;99622.98;2036198;86;21051;-79
2022/11/05 05:24:40;;;;;;;4.03;2.08;;;;;;;7.81;96.51;99629.08;2035631;86;21047;-77
2022/11/05 05:27:41;;;;;;;2.35;1.80;;;;;;;7.80;96.43;99641.97;2036819;86;21652;-77
2022/11/05 05:30:42;;;;;;;3.08;2.50;;;;;;;7.80;96.50;99629.26;2035446;86;21685;-76
2022/11/05 05:33:43;;;;;;;2.65;2.45;;;;;;;7.80;96.54;99631.90;2035500;86;21112;-76
2022/11/05 05:36:44;;;;;;;2.55;2.25;;;;;;;7.78;96.57;99626.77;2035720;86;21193;-77
2022/11/05 05:39:46;;;;;;;2.87;2.60;;;;;;;7.77;96.74;99625.13;2037154;86;21013;-76
2022/11/05 05:42:55;;;;;;;2.65;2.45;;;;;;;7.78;96.65;99625.44;2035927;86;21836;-76
2022/11/05 05:46:03;;;;;;;2.60;2.35;;;;;;;7.78;96.72;99640.47;2035454;86;21049;-76
2022/11/05 05:49:05;;;;;;;2.90;2.55;;;;;;;7.76;96.73;99643.25;2034724;86;21045;-77
2022/11/05 05:52:06;;;;;;;2.77;2.55;;;;;;;7.77;96.61;99654.64;2035903;86;21063;-82
2022/11/05 05:55:11;;;;;;;2.62;2.42;;;;;;;7.78;96.69;99668.20;2036279;86;21074;-77
2022/11/05 05:58:11;;;;;;;2.72;2.47;;;;;;;7.78;96.63;99670.84;2036178;86;21055;-76
2022/11/05 06:01:15;;;;;;;6.28;2.95;;;;;;;7.78;96.62;99685.37;2036002;86;21522;-77
2022/11/05 06:04:16;;;;;;;3.25;2.95;;;;;;;7.79;96.74;99696.25;2036568;86;21017;-76
2022/11/05 06:07:17;;;;;;;3.95;3.40;;;;;;;7.79;96.68;99701.04;2035084;86;21062;-76
2022/11/05 06:10:19;;;;;;;4.28;3.02;;;;;;;7.79;96.69;99694.94;2011206;86;21850;-76
2022/11/05 06:13:20;;;;;;;3.37;3.08;;;;;;;7.80;96.73;99700.57;2035785;86;21041;-76
2022/11/05 06:16:21;;;;;;;6.00;3.42;;;;;;;7.78;96.70;99706.50;2035685;86;21591;-76
2022/11/05 06:19:22;;;;;;;5.53;3.27;;;;;;;7.79;96.69;99722.67;2037553;86;21002;-76
2022/11/05 06:22:23;;;;;;;3.92;3.58;;;;;;;7.78;96.68;99729.77;2036879;86;21086;-78
2022/11/05 06:25:25;;;;;;;4.78;3.30;;;;;;;7.79;96.75;99734.55;2036421;86;21063;-77
2022/11/05 06:28:26;;;;;;;4.83;3.77;;;;;;;7.80;96.72;99737.05;2037592;86;21012;-79
2022/11/05 06:31:27;;;;;;;4.42;4.03;;;;;;;7.80;96.74;99751.58;2035422;86;21115;-77
2022/11/05 06:34:29;;;;;;;6.45;3.90;;;;;;;7.83;96.76;99763.14;2035921;86;20986;-80
2022/11/05 06:37:32;;;;;;;4.45;4.00;;;;;;;7.85;96.75;99763.83;2037088;86;21108;-80
2022/11/05 06:40:34;;;;;;;5.03;4.05;;;;;;;7.88;96.71;99764.47;2035247;86;21508;-84
2022/11/05 06:43:35;;;;;;;4.87;4.37;;;;;;;7.90;96.73;99776.54;2035763;86;21520;-82
2022/11/05 06:46:36;;;;;;;5.20;4.28;;;;;;;7.93;96.69;99772.76;2036383;86;20998;-78
2022/11/05 06:49:37;;;;;;;5.12;4.62;;;;;;;7.94;96.71;99776.58;2035500;86;21062;-80
2022/11/05 06:52:41;;;;;;;6.45;4.20;;;;;;;7.94;96.78;99785.83;2059094;85;21138;-79
2022/11/05 06:55:43;;;;;;;5.53;4.33;;;;;;;7.94;96.70;99792.42;2038587;86;21012;-81
2022/11/05 06:58:45;;;;;;;8.15;4.50;;;;;;;7.96;96.65;99804.14;2036287;86;21081;-80
2022/11/05 07:01:46;;;;;;;6.25;5.05;;;;;;;7.97;96.66;99810.61;2035929;86;21602;-78
2022/11/05 07:04:47;;;;;;;8.08;4.60;;;;;;;7.99;96.64;99807.78;2036500;86;21068;-80
2022/11/05 07:07:48;;;;;;;4.72;4.22;;;;;;;8.00;96.63;99808.14;2035843;86;21041;-80
2022/11/05 07:10:50;;;;;;;5.03;4.53;;;;;;;8.00;96.60;99811.61;2038157;86;21276;-79
2022/11/05 07:13:51;;;;;;;5.60;4.62;;;;;;;8.00;96.55;99808.97;2029923;86;21540;-81
2022/11/05 07:16:52;;;;;;;6.65;4.45;;;;;;;8.02;96.54;99809.61;2007031;87;21589;-79
2022/11/05 07:19:53;;;;;;;5.08;4.45;;;;;;;8.04;96.50;99809.47;2018612;87;21095;-81
2022/11/05 07:23:03;;;;;;;5.78;4.55;;;;;;;8.05;96.48;99811.97;2021313;87;21576;-77
2022/11/05 07:26:04;;;;;;;6.35;4.70;;;;;;;8.07;96.47;99825.00;2018266;87;21072;-77
2022/11/05 07:29:05;;;;;;;5.10;4.20;;;;;;;8.09;96.44;99837.58;2018094;86;21565;-77
2022/11/05 07:32:07;;;;;;;5.28;4.03;;;;;;;8.12;96.42;99846.51;2021087;86;21541;-79
2022/11/05 07:35:14;;;;;;;5.55;4.35;;;;;;;8.14;96.47;99847.66;2021026;86;21034;-78
2022/11/05 07:38:17;;;;;;;5.17;4.62;;;;;;;8.18;96.48;99857.77;2021494;86;21556;-78
2022/11/05 07:41:18;;;;;;;4.70;4.30;;;;;;;8.21;96.52;99864.55;2021653;86;21098;-79
2022/11/05 07:44:20;;;;;;;4.25;3.85;;;;;;;8.25;96.54;99859.27;2023082;86;20992;-82
2022/11/05 07:47:21;;;;;;;4.78;3.72;;;;;;;8.30;96.53;99866.24;2022475;86;21093;-78
2022/11/05 07:50:26;;;;;;;4.95;3.70;;;;;;;8.34;96.45;99868.92;2017757;86;21042;-79
2022/11/05 07:53:27;;;;;;;4.92;3.35;;;;;;;8.36;96.38;99868.75;2019153;86;21845;-78
2022/11/05 07:56:29;;;;;;;5.92;4.08;;;;;;;8.37;96.25;99881.82;2019166;86;21030;-78
2022/11/05 07:59:30;;;;;;;3.80;3.12;;;;;;;8.40;96.23;99886.82;2026046;86;21046;-79
2022/11/05 08:02:31;;;;;;;4.05;3.75;;;;;;;8.44;96.30;99884.68;2025307;86;21125;-85
2022/11/05 08:05:38;;;;;;;3.27;2.98;;;;;;;8.45;96.24;99893.80;2016971;86;21094;-79
2022/11/05 08:08:39;;;;;;;4.08;3.35;;;;;;;8.46;96.12;99890.15;2019222;86;21053;-81
2022/11/05 08:11:40;;;;;;;5.05;3.40;;;;;;;8.48;95.84;99897.94;2021265;86;21692;-79
2022/11/05 08:14:41;;;;;;;5.40;3.67;;;;;;;8.46;95.75;99900.73;2015074;86;21070;-80
2022/11/05 08:17:42;;;;;;;5.53;3.50;;;;;;;8.47;95.80;99902.37;2012480;87;21061;-80
2022/11/05 08:20:45;;;;;;;5.45;3.67;;;;;;;8.46;95.73;99900.73;2014006;87;21029;-80
2022/11/05 08:23:46;;;;;;;5.70;3.83;;;;;;;8.48;95.72;99905.38;1996549;87;21473;-83
2022/11/05 08:26:47;;;;;;;4.70;4.17;;;;;;;8.50;95.65;99913.12;2010385;87;21125;-76
2022/11/05 08:29:48;;;;;;;5.75;4.10;;;;;;;8.51;95.62;99922.23;2012713;87;21062;-75
2022/11/05 08:32:49;;;;;;;5.60;3.80;;;;;;;8.55;95.59;99932.50;2009511;87;21018;-78
2022/11/05 08:35:51;;;;;;;7.08;4.03;;;;;;;8.56;95.45;99932.36;2014928;87;21017;-80
2022/11/05 08:38:52;;;;;;;16.93;4.75;;;;;;;8.61;95.46;99937.16;2012956;87;21057;-80
2022/11/05 08:41:53;;;;;;;5.70;3.98;;;;;;;8.63;95.38;99939.16;2012476;87;21481;-82
2022/11/05 08:44:54;;;;;;;6.35;3.25;;;;;;;8.67;95.31;99947.95;2010717;87;21038;-81
2022/11/05 08:48:07;;;;;;;4.53;3.20;;;;;;;8.68;95.06;99951.41;2013283;87;21493;-80
2022/11/05 08:51:08;;;;;;;5.40;3.17;;;;;;;8.74;94.90;99962.18;2010306;87;21561;-82
2022/11/05 08:54:10;;;;;;;6.22;4.00;;;;;;;8.80;94.71;99947.98;2010589;87;21113;-78
2022/11/05 08:57:11;;;;;;;5.92;3.70;;;;;;;8.86;94.52;99952.14;2010434;87;21473;-80
2022/11/05 09:00:14;;;;;;;7.33;3.10;;;;;;;8.96;94.42;99962.61;2009652;87;21082;-80
2022/11/05 09:03:18;;;;;;;5.28;3.20;;;;;;;9.01;94.08;99970.05;2010085;87;21094;-80
2022/11/05 09:06:19;;;;;;;5.67;2.92;;;;;;;9.06;93.95;99986.28;2011024;87;21002;-82
2022/11/05 09:09:20;;;;;;;6.97;3.20;;;;;;;9.05;93.71;99981.98;2009340;87;21086;-81
2022/11/05 09:12:21;;;;;;;5.20;3.02;;;;;;;9.13;93.58;99992.61;2014008;87;21018;-80
2022/11/05 09:15:23;;;;;;;9.48;3.95;;;;;;;9.15;93.28;99995.90;2029475;86;21025;-79
2022/11/05 09:18:24;;;;;;;4.90;2.90;;;;;;;9.19;92.90;100005.20;2037705;86;20986;-81
2022/11/05 09:21:25;;;;;;;6.22;2.70;;;;;;;9.19;92.72;100008.67;2037145;86;21061;-81
2022/11/05 09:24:26;;;;;;;5.40;3.10;;;;;;;9.22;92.47;100014.64;2036110;86;21479;-82
2022/11/05 09:27:27;;;;;;;5.90;3.17;;;;;;;9.25;92.45;100016.46;2035962;86;21063;-80
2022/11/05 09:30:28;;;;;;;5.35;2.92;;;;;;;9.26;92.22;100014.14;2034376;86;21030;-80
2022/11/05 09:33:30;;;;;;;4.62;2.70;;;;;;;9.28;92.15;100014.81;2036444;86;21020;-83
2022/11/05 09:36:31;;;;;;;9.18;3.60;;;;;;;9.34;91.98;100022.61;2037054;86;20991;-81
2022/11/05 09:39:31;;;;;;;9.18;3.40;;;;;;;9.37;91.87;100026.26;2037347;86;21145;-81
2022/11/05 09:42:44;;;;;;;5.45;2.80;;;;;;;9.41;91.75;100033.73;2011872;86;21025;-82
2022/11/05 09:45:54;;;;;;;11.68;4.20;;;;;;;9.42;91.59;100040.67;2036885;86;21158;-83
2022/11/05 09:49:06;;;;;;;7.60;3.87;;;;;;;9.41;91.00;100040.35;2036035;86;21025;-79
2022/11/05 09:52:19;;;;;;;6.70;3.60;;;;;;;9.42;91.22;100043.32;2034683;86;20989;-79
2022/11/05 09:55:31;;;;;;;7.10;2.85;;;;;;;9.45;90.94;100037.37;2026231;86;21717;-77
2022/11/05 09:58:58;;;;;;;5.72;2.40;;;;;;;9.45;90.72;100038.70;2037207;86;21045;-77
2022/11/05 10:02:27;;;;;;;5.35;2.87;;;;;;;9.46;90.74;100035.91;2037094;86;21051;-78
2022/11/05 10:05:29;;;;;;;4.65;2.72;;;;;;;9.48;90.51;100037.88;2035573;86;21057;-78
2022/11/05 10:08:35;;;;;;;9.78;2.85;;;;;;;9.54;90.49;100036.40;2011917;86;20998;-80
2022/11/05 10:11:54;;;;;;;7.90;2.58;;;;;;;9.59;90.46;100030.13;2036452;86;21101;-80
2022/11/05 10:15:20;;;;;;;6.40;2.30;;;;;;;9.61;89.94;100032.12;2031276;86;21026;-79
2022/11/05 10:18:36;;;;;;;8.25;2.45;;;;;;;9.61;89.63;100041.39;2022180;86;21703;-76
2022/11/05 10:21:37;;;;;;;7.35;2.52;;;;;;;9.62;89.60;100050.98;2022337;86;21081;-81
2022/11/05 10:24:45;;;;;;;5.92;2.33;;;;;;;9.62;89.11;100050.48;2022165;87;21073;-81
2022/11/05 10:27:55;;;;;;;9.38;2.98;;;;;;;9.62;89.13;100057.61;2022887;87;21041;-82
2022/11/05 10:31:00;;;;;;;10.75;3.52;;;;;;;9.62;88.84;100056.29;2006891;86;21086;-81
2022/11/05 10:34:06;;;;;;;6.58;2.70;;;;;;;9.62;88.77;100058.94;2020591;86;21021;-81
2022/11/05 10:37:08;;;;;;;7.20;2.87;;;;;;;9.67;88.98;100061.94;2022419;86;21157;-81
2022/11/05 10:40:27;;;;;;;9.05;4.03;;;;;;;9.74;89.16;100061.63;2002413;87;21014;-81
2022/11/05 10:43:48;;;;;;;8.30;2.83;;;;;;;9.82;88.79;100058.97;2042067;85;21025;-81
2022/11/05 10:47:02;;;;;;;;;;;;;;;9.86;88.62;100070.09;2045880;85;21685;-77
2022/11/05 10:50:22;;;;;;;7.03;2.62;;;;;;;9.92;88.44;100081.87;2041660;85;20158;-78
2022/11/05 10:53:31;;;;;;;7.85;4.08;;;;;;;9.98;88.70;100087.33;2025573;85;21670;-78
2022/11/05 10:56:39;;;;;;;8.68;3.10;;;;;;;10.02;88.11;100078.55;2037702;85;21051;-78
2022/11/05 10:59:40;;;;;;;7.37;3.70;;;;;;;10.01;87.80;100084.35;2043026;86;21695;-78
2022/11/05 11:03:01;;;;;;;6.50;2.30;;;;;;;10.02;87.70;100090.00;2040454;86;21080;-78
2022/11/05 11:06:16;;;;;;;8.43;2.98;;;;;;;10.01;87.01;100081.70;2041101;85;23483;-78
2022/11/05 11:09:31;;;;;;;6.35;2.77;;;;;;;10.02;86.93;100082.52;2046830;85;21163;-78
2022/11/05 11:12:37;;;;;;;8.73;2.90;;;;;;;10.07;87.13;100078.89;2042115;85;21087;-78
2022/11/05 11:15:38;;;;;;;5.25;2.27;;;;;;;10.16;87.13;100073.09;2047749;85;21072;-79
2022/11/05 11:18:42;;;;;;;3.85;2.33;;;;;;;10.21;86.65;100087.52;2049211;85;21063;-78
2022/11/05 11:21:43;;;;;;;6.33;2.30;;;;;;;10.23;86.26;100093.49;2049805;85;21575;-82
2022/11/05 11:24:48;;;;;;;6.20;2.75;;;;;;;10.25;86.01;100094.16;2046967;85;21102;-78
2022/11/05 11:27:50;;;;;;;10.53;3.37;;;;;;;10.25;86.01;100094.16;2056259;85;21423;-78
2022/11/05 11:31:14;;;;;;;7.10;2.45;;;;;;;10.19;85.84;100080.72;2060942;85;21040;-79
2022/11/05 11:34:32;;;;;;;5.50;2.72;;;;;;;10.30;86.11;100098.98;2052937;85;21048;-78
2022/11/05 11:37:40;;;;;;;9.95;3.22;;;;;;;10.27;85.74;100095.34;2037346;85;21032;-77
2022/11/05 11:40:42;;;;;;;7.53;2.83;;;;;;;10.27;85.96;100106.77;2047982;85;21080;-80
2022/11/05 11:43:49;;;;;;;5.60;2.60;;;;;;;10.32;85.96;100107.11;2046995;85;21503;-78
2022/11/05 11:47:02;;;;;;;8.68;2.83;;;;;;;10.33;85.44;100110.59;2055211;85;21071;-81
2022/11/05 11:50:17;;;;;;;9.38;3.72;;;;;;;10.33;85.44;100110.59;2052204;85;21062;-78
2022/11/05 11:53:31;;;;;;;8.23;3.50;;;;;;;10.32;85.17;100119.05;2034020;85;21004;-81
2022/11/05 11:56:45;;;;;;;10.08;3.90;;;;;;;10.37;85.42;100116.41;2054327;85;21127;-78
2022/11/05 11:59:46;;;;;;;6.50;3.47;;;;;;;10.30;85.26;100099.84;2057441;85;21372;-77
2022/11/05 12:03:05;;;;;;;7.40;3.42;;;;;;;10.43;84.93;100124.52;2054135;85;21037;-77
2022/11/05 12:06:32;;;;;;;9.70;2.90;;;;;;;10.41;84.94;100123.03;2051574;85;21043;-78
2022/11/05 12:10:10;;;;;;;15.35;3.90;;;;;;;10.31;85.15;100106.78;2052839;85;21001;-78
2022/11/05 12:13:22;;;;;;;7.30;3.08;;;;;;;10.52;85.35;100137.29;2051360;85;21082;-77
2022/11/05 12:16:52;;;;;;;6.85;3.65;;;;;;;10.60;85.48;100149.73;2055627;85;21041;-77
2022/11/05 12:20:11;;;;;;;12.47;3.70;;;;;;;10.64;84.72;100145.73;2062199;85;21104;-78
2022/11/05 12:23:48;;;;;;;9.45;4.22;;;;;;;10.63;84.48;100146.24;2055197;85;22393;-76
2022/11/05 12:27:33;;;;;;;8.05;3.35;;;;;;;10.62;84.32;100145.92;2055961;85;21444;-79
2022/11/05 12:31:31;;;;;;;11.80;4.08;;;;;;;10.67;84.75;100139.63;2056157;85;21108;-77
2022/11/05 12:34:56;;;;;;;11.60;3.40;;;;;;;10.68;84.57;100142.59;2057501;85;21070;-76
2022/11/05 12:38:23;;;;;;;8.13;3.42;;;;;;;10.65;83.90;100150.07;2055837;85;21016;-76
2022/11/05 12:41:44;;;;;;;9.83;3.58;;;;;;;10.62;83.97;100153.88;2057991;85;21027;-77
2022/11/05 12:44:56;;;;;;;9.23;3.45;;;;;;;10.65;83.92;100160.69;2056490;85;21772;-78
2022/11/05 12:48:28;;;;;;;8.30;3.37;;;;;;;10.67;83.20;100158.67;2055166;85;21078;-77
2022/11/05 12:51:54;;;;;;;8.63;3.02;;;;;;;10.66;83.32;100156.52;2023958;85;21084;-77
2022/11/05 12:55:21;;;;;;;10.75;3.58;;;;;;;10.67;83.29;100154.69;2045574;85;21063;-77
2022/11/05 12:58:34;;;;;;;11.45;4.40;;;;;;;10.67;83.10;100150.23;2049488;85;21085;-76
2022/11/05 13:01:40;;;;;;;11.28;3.30;;;;;;;10.70;82.92;100151.23;2051097;85;21074;-78
2022/11/05 13:04:47;;;;;;;10.30;3.62;;;;;;;10.67;82.81;100158.20;2049421;85;21058;-77
2022/11/05 13:08:12;;;;;;;16.30;4.30;;;;;;;10.66;82.59;100161.83;2049351;85;21060;-76
2022/11/05 13:11:30;;;;;;;16.32;4.55;;;;;;;10.68;82.98;100163.83;2051156;85;21089;-77
2022/11/05 13:14:46;;;;;;;10.93;4.28;;;;;;;10.73;82.34;100165.48;2048466;85;21049;-76
2022/11/05 13:17:57;;;;;;;8.50;3.95;;;;;;;10.79;82.68;100168.48;2019477;86;21072;-77
2022/11/05 13:21:02;;;;;;;10.63;3.83;;;;;;;10.81;82.32;100165.14;2023501;86;21098;-76
2022/11/05 13:24:29;;;;;;;11.25;3.30;;;;;;;10.84;82.37;100166.13;1995585;86;21048;-76
2022/11/05 13:27:57;;;;;;;9.83;3.22;;;;;;;10.83;80.86;100169.79;2021429;86;21639;-79
2022/11/05 13:31:02;;;;;;;10.05;3.25;;;;;;;10.74;80.59;100176.42;2023708;86;21054;-77
2022/11/05 13:34:11;;;;;;;11.40;3.58;;;;;;;10.73;80.76;100175.28;2021485;87;21041;-77
2022/11/05 13:41:29;;;;;;;10.98;3.80;;;;;;;10.75;80.19;100183.88;2023278;86;22187;-79
2022/11/05 13:44:44;;;;;;;10.95;3.15;;;;;;;10.67;79.62;100198.00;2019476;86;21500;-76
2022/11/05 13:47:57;;;;;;;8.15;2.75;;;;;;;10.61;79.33;100201.29;2018337;88;21040;-77
2022/11/05 13:51:18;;;;;;;9.10;3.92;;;;;;;10.48;78.98;100182.41;1993543;86;21066;-74
2022/11/05 13:54:43;;;;;;;17.00;3.98;;;;;;;10.50;79.24;100203.80;2006902;86;21589;-78
2022/11/05 13:57:58;;;;;;;16.32;5.60;;;;;;;10.54;79.49;100207.77;2022706;86;21014;-75
2022/11/05 14:01:33;;;;;;;11.80;4.85;;;;;;;10.60;79.23;100219.55;1996817;86;21132;-75
2022/11/05 14:04:48;;;;;;;12.70;3.70;;;;;;;10.61;78.78;100225.17;2022007;86;21072;-74
2022/11/05 14:07:54;;;;;;;14.07;3.75;;;;;;;10.55;78.33;100221.86;2026112;86;21025;-76
2022/11/05 14:11:06;;;;;;;13.78;3.35;;;;;;;10.50;78.50;100226.81;2019696;86;21563;-75
2022/11/05 14:14:19;;;;;;;27.42;4.45;;;;;;;10.42;77.90;100236.94;2023265;86;21029;-74
2022/11/05 14:17:35;;;;;;;12.45;3.12;;;;;;;10.37;78.23;100231.79;2020124;86;21048;-75
2022/11/05 14:20:42;;;;;;;7.42;2.72;;;;;;;10.28;78.19;100238.90;2011016;88;21680;-79
2022/11/05 14:23:51;;;;;;;15.55;3.80;;;;;;;10.25;78.21;100249.30;2017171;86;21109;-75
2022/11/05 14:27:07;;;;;;;12.67;3.70;;;;;;;10.21;78.06;100249.77;2020973;86;21549;-75
2022/11/05 14:30:47;;;;;;;11.60;4.80;;;;;;;10.13;78.11;100250.56;2019836;86;21059;-78
2022/11/05 14:34:15;;;;;;;11.63;4.70;;;;;;;10.08;78.12;100260.84;2018716;86;21071;-77
2022/11/05 14:37:26;;;;;;;11.05;4.10;;;;;;;9.96;77.85;100266.91;2019373;86;21098;-77
2022/11/05 14:40:41;;;;;;;13.58;4.47;;;;;;;9.85;77.41;100274.66;2018287;86;21073;-75
2022/11/05 14:43:56;;;;;;;10.98;4.05;;;;;;;9.78;78.11;100273.63;2023334;86;21049;-76
2022/11/05 14:47:02;;;;;;;16.90;4.17;;;;;;;9.72;78.21;100272.11;1983391;86;20955;-76
2022/11/05 14:50:36;;;;;;;11.90;3.95;;;;;;;9.65;78.31;100281.98;2021957;86;20970;-78
2022/11/05 14:53:39;;;;;;;13.25;3.90;;;;;;;9.61;78.44;100287.77;2022299;86;21073;-77
2022/11/05 14:56:55;;;;;;;18.05;5.20;;;;;;;9.56;78.57;100288.73;2020669;86;21066;-79
2022/11/05 14:59:59;;;;;;;15.08;4.40;;;;;;;9.52;78.65;100297.48;2018359;86;21042;-79
2022/11/05 15:03:21;;;;;;;17.60;5.08;;;;;;;9.45;78.77;100291.13;2017603;86;21114;-78
2022/11/05 15:06:35;;;;;;;12.43;4.37;;;;;;;9.40;78.92;100300.03;2018797;86;21494;-79
2022/11/05 15:09:51;;;;;;;14.53;5.53;;;;;;;9.34;79.06;100305.95;2021536;86;21108;-75
2022/11/05 15:12:58;;;;;;;10.45;5.00;;;;;;;9.27;79.13;100312.86;2019794;87;21031;-78
2022/11/05 15:15:59;;;;;;;14.30;5.78;;;;;;;9.16;79.15;100309.95;2031063;85;21101;-77
2022/11/05 15:19:02;;;;;;;23.00;7.87;;;;;;;9.09;79.35;100316.83;2049943;85;21198;-81
2022/11/05 15:22:09;;;;;;;19.02;7.03;;;;;;;9.06;79.50;100309.20;2052192;85;20986;-78
2022/11/05 15:25:48;;;;;;;19.70;8.28;;;;;;;9.04;79.58;100313.80;2049914;85;21030;-78
2022/11/05 15:28:52;;;;;;;22.30;8.70;;;;;;;9.01;79.63;100318.94;2049638;85;21158;-80
2022/11/05 15:31:53;;;;;;;23.20;7.55;;;;;;;8.95;79.67;100316.87;2048671;85;21016;-79
2022/11/05 15:34:57;;;;;;;20.65;8.10;;;;;;;8.91;79.84;100316.34;2050171;85;21070;-77
2022/11/05 15:38:00;;;;;;;15.80;7.90;;;;;;;8.90;79.91;100315.20;2024391;85;21058;-80
2022/11/05 15:41:07;;;;;;;23.18;7.33;;;;;;;8.87;79.91;100312.36;2049103;85;21068;-80
2022/11/05 15:44:24;;;;;;;15.58;7.78;;;;;;;8.84;79.96;100316.62;2024650;85;21089;-78
2022/11/05 15:47:33;;;;;;;21.60;9.70;;;;;;;8.82;79.96;100319.91;2050364;85;21086;-79
2022/11/05 15:50:35;;;;;;;17.70;8.63;;;;;;;8.78;80.01;100321.17;2051450;85;22176;-78
2022/11/05 15:53:50;;;;;;;20.57;8.75;;;;;;;8.73;80.03;100332.72;2050242;85;21017;-78
2022/11/05 15:56:56;;;;;;;21.33;8.85;;;;;;;8.69;80.12;100331.34;2052972;85;21088;-81
2022/11/05 15:59:57;;;;;;;40.20;19.35;;;;;;;8.62;80.16;100331.11;2050132;85;21542;-79
2022/11/05 16:03:12;;;;;;;44.13;21.30;;;;;;;8.58;80.21;100338.16;2052798;85;21616;-78
2022/11/05 16:06:14;;;;;;;50.75;21.10;;;;;;;8.53;80.31;100350.49;2024384;85;21104;-79
2022/11/05 16:09:30;;;;;;;66.10;26.75;;;;;;;8.44;80.22;100357.50;2053081;85;21143;-79
2022/11/05 16:12:35;;;;;;;41.05;19.50;;;;;;;8.31;80.29;100360.97;2050189;85;21106;-78
2022/11/05 16:15:37;;;;;;;40.95;19.77;;;;;;;8.18;80.35;100357.32;2048746;85;21055;-78
2022/11/05 16:18:39;;;;;;;33.42;16.85;;;;;;;8.12;80.39;100371.12;2040755;86;21102;-78
2022/11/05 16:21:53;;;;;;;36.95;18.45;;;;;;;8.05;80.40;100370.02;2039264;85;21432;-77
2022/11/05 16:24:54;;;;;;;39.15;21.12;;;;;;;7.98;80.49;100376.88;2046651;85;21029;-79
2022/11/05 16:27:58;;;;;;;41.70;19.35;;;;;;;7.92;80.55;100376.13;2041795;85;21024;-79
2022/11/05 16:31:03;;;;;;;51.88;25.17;;;;;;;7.85;80.46;100379.81;2040803;85;21059;-79
2022/11/05 16:34:04;;;;;;;63.65;28.20;;;;;;;7.75;80.68;100377.20;2041768;86;21064;-79
2022/11/05 16:37:12;;;;;;;70.70;31.35;;;;;;;7.71;80.77;100384.22;2040342;85;21989;-79
2022/11/05 16:40:22;;;;;;;57.05;27.42;;;;;;;7.66;80.88;100383.80;2040102;85;21100;-79
2022/11/05 16:43:25;;;;;;;60.28;29.05;;;;;;;7.60;80.92;100382.10;2042043;85;21087;-84
2022/11/05 16:46:29;;;;;;;56.92;27.27;;;;;;;7.55;80.95;100383.00;2022811;85;21076;-80
2022/11/05 16:49:30;;;;;;;51.30;26.05;;;;;;;7.50;80.93;100382.59;2039115;86;21083;-82
2022/11/05 16:52:31;;;;;;;55.17;25.95;;;;;;;7.43;80.95;100393.34;2041157;85;21032;-79
2022/11/05 16:55:35;;;;;;;46.80;23.38;;;;;;;7.34;81.00;100391.55;2038838;85;20993;-79
2022/11/05 16:58:36;;;;;;;33.83;18.65;;;;;;;7.28;81.07;100396.07;2044321;85;21057;-80
2022/11/05 17:01:41;;;;;;;54.42;30.17;;;;;;;7.22;81.24;100408.02;2041116;85;21091;-80
2022/11/05 17:04:42;;;;;;;55.52;26.80;;;;;;;7.16;81.45;100397.53;2021541;87;21520;-79
2022/11/05 17:07:43;;;;;;;52.05;28.50;;;;;;;7.11;81.57;100405.02;2041357;85;21073;-79
2022/11/05 17:10:47;;;;;;;41.83;22.32;;;;;;;7.06;81.39;100409.86;2041287;85;21075;-79
2022/11/05 17:13:49;;;;;;;50.90;24.40;;;;;;;7.01;81.70;100412.11;2041117;86;21122;-79